createdAt,value
2023-04-09T00:00:21.656Z,5.33
2023-04-09T00:02:49.244Z,5.27
2023-04-09T00:05:16.799Z,5.26
2023-04-09T00:07:44.712Z,5.22
2023-04-09T00:10:12.320Z,5.19
2023-04-09T00:12:39.892Z,5.17
2023-04-09T00:15:11.078Z,5.17
2023-04-09T00:17:40.641Z,5.19
2023-04-09T00:20:08.805Z,5.18
2023-04-09T00:22:36.437Z,4.98
2023-04-09T00:25:04.028Z,5.12
2023-04-09T00:27:31.696Z,5.13
2023-04-09T00:29:59.274Z,5.11
2023-04-09T00:32:26.994Z,5.09
2023-04-09T00:34:54.431Z,5.12
2023-04-09T00:37:21.887Z,5.09
2023-04-09T00:39:49.406Z,5.08
2023-04-09T00:42:16.860Z,5.06
2023-04-09T00:44:44.931Z,5.06
2023-04-09T00:47:12.807Z,5.08
2023-04-09T00:49:40.300Z,5.11
2023-04-09T00:52:08.218Z,5.05
2023-04-09T00:54:35.692Z,5.04
2023-04-09T00:57:03.977Z,5.10
2023-04-09T00:59:32.054Z,5.07
2023-04-09T01:01:59.582Z,5.05
2023-04-09T01:04:27.169Z,5.02
2023-04-09T01:07:19.085Z,5.20
2023-04-09T01:10:28.952Z,5.27
2023-04-09T01:13:03.790Z,5.16
2023-04-09T01:15:37.369Z,5.11
2023-04-09T01:18:24.176Z,5.21
2023-04-09T01:21:14.817Z,5.23
2023-04-09T01:24:15.778Z,5.22
2023-04-09T01:27:04.363Z,5.29
2023-04-09T01:29:54.995Z,5.18
2023-04-09T01:32:23.434Z,5.19
2023-04-09T01:34:52.234Z,5.23
2023-04-09T01:37:20.941Z,5.23
2023-04-09T01:39:48.718Z,5.24
2023-04-09T01:42:16.966Z,5.30
2023-04-09T01:44:47.063Z,5.38
2023-04-09T01:47:14.769Z,5.39
2023-04-09T01:49:43.651Z,5.44
2023-04-09T01:52:12.139Z,5.51
2023-04-09T01:54:39.718Z,5.52
2023-04-09T01:57:07.205Z,5.60
2023-04-09T01:59:34.735Z,5.68
2023-04-09T02:02:08.849Z,5.77
2023-04-09T02:04:41.310Z,5.84
2023-04-09T02:07:36.935Z,5.97
2023-04-09T02:10:06.796Z,6.01
2023-04-09T02:12:36.873Z,6.02
2023-04-09T02:15:07.116Z,6.16
2023-04-09T02:17:35.230Z,6.24
2023-04-09T02:20:02.799Z,6.36
2023-04-09T02:22:30.565Z,6.64
2023-04-09T02:25:00.087Z,7.39
2023-04-09T02:27:27.588Z,8.19
2023-04-09T02:29:54.990Z,9.01
2023-04-09T02:32:22.629Z,9.83
2023-04-09T02:34:50.961Z,10.59
2023-04-09T02:37:18.744Z,11.29
2023-04-09T02:39:47.893Z,11.93
2023-04-09T02:42:15.579Z,12.57
2023-04-09T02:44:44.571Z,13.12
2023-04-09T02:47:13.932Z,13.62
2023-04-09T02:49:41.621Z,14.09
2023-04-09T02:52:13.852Z,14.50
2023-04-09T02:54:41.732Z,15.04
2023-04-09T02:57:09.200Z,15.46
2023-04-09T02:59:39.151Z,15.84
2023-04-09T03:02:07.099Z,16.23
2023-04-09T03:04:34.728Z,16.64
2023-04-09T03:07:02.326Z,16.98
2023-04-09T03:09:31.147Z,17.40
2023-04-09T03:12:10.172Z,17.71
2023-04-09T03:15:31.336Z,17.80
2023-04-09T03:17:43.984Z,18.24
2023-04-09T03:20:24.983Z,18.50
2023-04-09T03:22:59.438Z,19.07
2023-04-09T03:30:03.139Z,19.93
2023-04-09T03:32:45.130Z,19.90
2023-04-09T03:35:14.249Z,20.61
2023-04-09T03:37:44.169Z,21.13
2023-04-09T03:40:17.401Z,21.41
2023-04-09T03:42:45.033Z,21.73
2023-04-09T03:45:15.460Z,22.02
2023-04-09T03:47:46.774Z,22.33
2023-04-09T03:50:14.830Z,22.62
2023-04-09T03:52:52.622Z,22.83
2023-04-09T03:55:20.425Z,23.38
2023-04-09T03:57:49.519Z,23.64
2023-04-09T04:00:26.281Z,23.87
2023-04-09T04:03:24.258Z,24.20
2023-04-09T04:06:07.760Z,24.60
2023-04-09T04:08:45.827Z,24.93
2023-04-09T04:11:13.372Z,25.22
2023-04-09T04:13:41.249Z,25.52
2023-04-09T04:16:10.766Z,26.45
2023-04-09T04:18:40.736Z,27.21
2023-04-09T04:21:13.938Z,27.64
2023-04-09T04:23:44.831Z,28.15
2023-04-09T04:26:19.691Z,28.50
2023-04-09T04:28:47.272Z,28.87
2023-04-09T04:31:26.295Z,29.19
2023-04-09T04:33:58.415Z,29.45
2023-04-09T04:36:26.533Z,29.78
2023-04-09T04:38:54.359Z,30.00
2023-04-09T04:41:30.096Z,30.25
2023-04-09T04:44:08.758Z,30.53
2023-04-09T04:46:37.069Z,30.75
2023-04-09T04:49:05.325Z,30.99
2023-04-09T04:51:37.504Z,31.16
2023-04-09T04:54:09.662Z,31.33
2023-04-09T04:56:37.816Z,31.52
2023-04-09T04:59:14.501Z,31.65
2023-04-09T05:01:55.988Z,31.81
2023-04-09T05:04:23.924Z,32.02
2023-04-09T05:06:51.765Z,32.16
2023-04-09T05:09:22.634Z,32.35
2023-04-09T05:11:59.988Z,32.43
2023-04-09T05:14:27.703Z,32.48
2023-04-09T05:16:55.338Z,32.57
2023-04-09T05:19:28.373Z,32.72
2023-04-09T05:22:00.699Z,32.74
2023-04-09T05:24:29.570Z,32.81
2023-04-09T05:26:57.937Z,32.92
2023-04-09T05:29:26.456Z,32.99
2023-04-09T05:31:56.260Z,33.10
2023-04-09T05:34:41.738Z,33.22
2023-04-09T05:37:11.785Z,33.23
2023-04-09T05:39:40.124Z,33.29
2023-04-09T05:42:07.617Z,33.46
2023-04-09T05:44:56.034Z,33.62
2023-04-09T05:47:24.801Z,33.88
2023-04-09T05:50:12.528Z,34.07
2023-04-09T05:52:40.600Z,34.23
2023-04-09T05:55:10.132Z,34.30
2023-04-09T05:57:45.930Z,34.44
2023-04-09T06:00:13.943Z,34.49
2023-04-09T06:02:44.760Z,34.61
2023-04-09T06:05:12.384Z,34.72
2023-04-09T06:07:40.269Z,34.78
2023-04-09T06:10:09.003Z,34.92
2023-04-09T06:12:36.784Z,35.06
2023-04-09T06:15:05.873Z,35.29
2023-04-09T06:17:33.789Z,35.43
2023-04-09T06:20:01.298Z,35.53
2023-04-09T06:22:30.508Z,35.68
2023-04-09T06:24:57.991Z,35.84
2023-04-09T06:27:25.523Z,36.06
2023-04-09T06:29:53.009Z,36.23
2023-04-09T06:32:20.544Z,35.83
2023-04-09T06:34:48.636Z,35.71
2023-04-09T06:37:16.224Z,35.66
2023-04-09T06:39:50.667Z,35.61
2023-04-09T06:42:27.052Z,35.55
2023-04-09T06:45:17.870Z,35.48
2023-04-09T06:47:46.695Z,35.48
2023-04-09T06:50:14.246Z,35.51
2023-04-09T06:52:42.306Z,35.52
2023-04-09T06:55:10.158Z,35.63
2023-04-09T06:57:38.819Z,35.68
2023-04-09T07:00:07.693Z,35.63
2023-04-09T07:02:35.499Z,35.58
2023-04-09T07:05:04.417Z,35.46
2023-04-09T07:07:32.128Z,35.40
2023-04-09T07:09:59.846Z,35.39
2023-04-09T07:12:34.811Z,35.00
2023-04-09T07:15:04.063Z,35.21
2023-04-09T07:17:32.495Z,34.98
2023-04-09T07:20:00.283Z,34.88
2023-04-09T07:22:30.689Z,34.58
2023-04-09T07:24:58.413Z,34.41
2023-04-09T07:27:27.912Z,34.13
2023-04-09T07:29:57.133Z,33.78
2023-04-09T07:32:25.798Z,33.30
2023-04-09T07:34:54.414Z,32.81
2023-04-09T07:37:21.968Z,32.31
2023-04-09T07:39:51.522Z,31.87
2023-04-09T07:42:19.271Z,31.35
2023-04-09T07:44:48.586Z,30.90
2023-04-09T07:47:16.355Z,30.45
2023-04-09T07:49:43.913Z,30.00
2023-04-09T07:52:11.750Z,29.52
2023-04-09T07:54:39.285Z,29.10
2023-04-09T07:57:07.271Z,28.78
2023-04-09T07:59:35.449Z,28.45
2023-04-09T08:02:02.982Z,28.19
2023-04-09T08:04:30.924Z,27.96
2023-04-09T08:06:58.542Z,27.67
2023-04-09T08:09:26.336Z,27.43
2023-04-09T08:11:53.879Z,27.24
2023-04-09T08:14:21.631Z,27.05
2023-04-09T08:16:50.811Z,26.76
2023-04-09T08:19:20.498Z,26.53
2023-04-09T08:21:49.859Z,26.28
2023-04-09T08:24:17.612Z,26.16
2023-04-09T08:26:45.560Z,25.97
2023-04-09T08:29:14.004Z,25.74
2023-04-09T08:31:42.699Z,25.53
2023-04-09T08:34:10.372Z,25.28
2023-04-09T08:36:37.948Z,24.99
2023-04-09T08:39:05.531Z,24.68
2023-04-09T08:41:33.266Z,24.50
2023-04-09T08:44:01.125Z,24.15
2023-04-09T08:46:29.045Z,23.91
2023-04-09T08:48:57.448Z,23.68
2023-04-09T08:51:25.367Z,23.49
2023-04-09T08:54:03.650Z,23.69
2023-04-09T08:56:31.921Z,23.18
2023-04-09T08:58:59.605Z,22.87
2023-04-09T09:01:29.800Z,22.58
2023-04-09T09:04:01.386Z,22.33
2023-04-09T09:06:33.486Z,22.31
2023-04-09T09:09:05.733Z,22.03
2023-04-09T09:11:34.909Z,21.82
2023-04-09T09:14:12.901Z,22.07
2023-04-09T09:16:45.289Z,21.66
2023-04-09T09:19:25.170Z,21.89
2023-04-09T09:22:02.093Z,21.55
2023-04-09T09:24:30.002Z,21.08
2023-04-09T09:26:59.084Z,20.87
2023-04-09T09:29:27.001Z,20.75
2023-04-09T09:31:55.930Z,20.65
2023-04-09T09:34:25.092Z,20.53
2023-04-09T09:36:52.581Z,20.30
2023-04-09T09:39:20.463Z,20.16
2023-04-09T09:41:49.014Z,20.00
2023-04-09T09:44:34.044Z,20.25
2023-04-09T09:47:04.381Z,19.95
2023-04-09T09:49:31.872Z,19.68
2023-04-09T09:52:03.831Z,19.60
2023-04-09T09:54:42.716Z,19.47
2023-04-09T09:57:13.901Z,19.31
2023-04-09T09:59:48.221Z,19.10
2023-04-09T10:02:24.909Z,19.28
2023-04-09T10:04:55.315Z,19.00
2023-04-09T10:07:24.429Z,18.94
2023-04-09T10:09:54.685Z,18.82
2023-04-09T10:12:26.289Z,18.70
2023-04-09T10:15:00.793Z,18.77
2023-04-09T10:17:28.441Z,18.52
2023-04-09T10:20:08.097Z,18.67
2023-04-09T10:22:36.692Z,18.41
2023-04-09T10:25:05.215Z,18.33
2023-04-09T10:27:33.132Z,18.23
2023-04-09T10:30:02.063Z,18.25
2023-04-09T10:32:36.437Z,18.40
2023-04-09T10:35:04.782Z,18.21
2023-04-09T10:37:32.334Z,18.27
2023-04-09T10:40:00.180Z,18.26
2023-04-09T10:42:35.782Z,18.41
2023-04-09T10:45:11.147Z,18.32
2023-04-09T10:47:44.180Z,18.28
2023-04-09T10:50:22.302Z,18.23
2023-04-09T10:53:00.980Z,18.15
2023-04-09T10:55:42.164Z,18.14
2023-04-09T10:58:13.097Z,17.90
2023-04-09T11:00:49.061Z,17.97
2023-04-09T11:03:33.105Z,18.05
2023-04-09T11:06:10.593Z,17.95
2023-04-09T11:08:39.470Z,17.74
2023-04-09T11:11:07.085Z,17.70
2023-04-09T11:13:34.791Z,17.52
2023-04-09T11:16:07.336Z,17.56
2023-04-09T11:18:37.399Z,17.56
2023-04-09T11:21:05.204Z,17.56
2023-04-09T11:23:33.417Z,17.52
2023-04-09T11:26:02.396Z,17.54
2023-04-09T11:28:29.950Z,17.51
2023-04-09T11:30:57.414Z,17.49
2023-04-09T11:33:32.947Z,17.67
2023-04-09T11:36:00.515Z,17.46
2023-04-09T11:38:28.040Z,17.57
2023-04-09T11:40:57.980Z,17.61
2023-04-09T11:43:25.625Z,17.57
2023-04-09T11:45:53.957Z,17.51
2023-04-09T11:48:23.976Z,17.50
2023-04-09T11:50:51.689Z,17.39
2023-04-09T11:53:20.807Z,17.42
2023-04-09T11:55:52.613Z,17.50
2023-04-09T11:58:26.535Z,17.41
2023-04-09T12:00:59.464Z,17.42
2023-04-09T12:03:31.554Z,17.31
2023-04-09T12:06:04.145Z,17.28
2023-04-09T12:08:35.300Z,17.27
2023-04-09T12:11:10.838Z,17.36
2023-04-09T12:13:43.559Z,17.21
2023-04-09T12:16:15.305Z,17.34
2023-04-09T12:18:47.914Z,17.24
2023-04-09T12:21:16.641Z,17.13
2023-04-09T12:23:45.653Z,17.00
2023-04-09T12:26:13.536Z,17.01
2023-04-09T12:28:41.505Z,16.95
2023-04-09T12:31:12.246Z,16.95
2023-04-09T12:33:40.680Z,16.79
2023-04-09T12:36:08.586Z,16.65
2023-04-09T12:38:36.198Z,16.70
2023-04-09T12:41:03.789Z,16.74
2023-04-09T12:43:31.272Z,16.63
2023-04-09T12:45:58.855Z,16.67
2023-04-09T12:48:27.053Z,16.62
2023-04-09T12:50:54.767Z,16.54
2023-04-09T12:53:22.245Z,16.53
2023-04-09T12:55:49.736Z,16.52
2023-04-09T12:58:17.282Z,16.42
2023-04-09T13:00:44.826Z,16.38
2023-04-09T13:03:12.871Z,16.42
2023-04-09T13:05:40.669Z,16.42
2023-04-09T13:08:08.242Z,16.37
2023-04-09T13:10:36.714Z,16.23
2023-04-09T13:13:04.254Z,16.16
2023-04-09T13:15:31.892Z,16.16
2023-04-09T13:17:59.473Z,16.15
2023-04-09T13:20:27.023Z,16.00
2023-04-09T13:22:54.723Z,15.89
2023-04-09T13:25:22.500Z,15.89
2023-04-09T13:27:49.979Z,15.95
2023-04-09T13:30:17.584Z,15.92
2023-04-09T13:32:45.111Z,15.91
2023-04-09T13:35:12.694Z,15.87
2023-04-09T13:37:40.152Z,15.82
2023-04-09T13:40:09.454Z,15.74
2023-04-09T13:42:37.895Z,15.58
2023-04-09T13:45:06.231Z,15.50
2023-04-09T13:47:33.848Z,15.53
2023-04-09T13:50:01.848Z,15.41
2023-04-09T13:52:30.005Z,15.46
2023-04-09T13:54:57.689Z,15.44
2023-04-09T13:57:25.401Z,15.38
2023-04-09T13:59:53.036Z,15.32
2023-04-09T14:02:21.079Z,15.28
2023-04-09T14:04:48.709Z,15.21
2023-04-09T14:07:16.332Z,15.12
2023-04-09T14:09:44.313Z,15.11
2023-04-09T14:12:11.844Z,15.01
2023-04-09T14:14:39.566Z,15.00
2023-04-09T14:17:14.124Z,15.10
2023-04-09T14:19:51.143Z,14.95
2023-04-09T14:22:19.683Z,14.93
2023-04-09T14:24:47.169Z,14.89
2023-04-09T14:27:14.753Z,14.85
2023-04-09T14:29:42.382Z,14.80
2023-04-09T14:32:10.063Z,14.76
2023-04-09T14:34:37.516Z,14.72
2023-04-09T14:37:05.102Z,14.67
2023-04-09T14:39:32.521Z,14.61
2023-04-09T14:42:00.061Z,14.50
2023-04-09T14:44:27.717Z,14.48
2023-04-09T14:46:55.405Z,14.44
2023-04-09T14:49:23.241Z,14.43
2023-04-09T14:51:50.787Z,14.32
2023-04-09T14:54:18.644Z,14.27
2023-04-09T14:56:46.192Z,14.24
2023-04-09T14:59:14.090Z,14.17
2023-04-09T15:01:41.683Z,14.13
2023-04-09T15:04:09.386Z,14.09
2023-04-09T15:06:37.416Z,14.07
2023-04-09T15:09:04.893Z,13.98
2023-04-09T15:11:41.987Z,13.91
2023-04-09T15:14:12.700Z,13.90
2023-04-09T15:16:40.293Z,13.80
2023-04-09T15:19:08.060Z,13.67
2023-04-09T15:21:35.872Z,13.61
2023-04-09T15:24:04.011Z,13.57
2023-04-09T15:26:33.804Z,13.53
2023-04-09T15:29:05.858Z,13.52
2023-04-09T15:31:33.824Z,13.44
2023-04-09T15:34:01.354Z,13.41
2023-04-09T15:36:30.358Z,13.32
2023-04-09T15:38:58.028Z,13.26
2023-04-09T15:41:27.158Z,13.24
2023-04-09T15:43:54.638Z,13.18
2023-04-09T15:46:22.234Z,13.16
2023-04-09T15:48:49.901Z,13.11
2023-04-09T15:51:17.323Z,13.06
2023-04-09T15:53:45.013Z,13.01
2023-04-09T15:56:16.208Z,13.00
2023-04-09T15:58:43.992Z,12.93
2023-04-09T16:01:11.917Z,12.88
2023-04-09T16:03:42.628Z,12.84
2023-04-09T16:06:13.546Z,12.82
2023-04-09T16:08:41.204Z,12.77
2023-04-09T16:11:08.783Z,12.74
2023-04-09T16:13:36.555Z,12.67
2023-04-09T16:16:04.559Z,12.71
2023-04-09T16:18:32.220Z,12.65
2023-04-09T16:21:00.024Z,12.62
2023-04-09T16:23:29.942Z,12.62
2023-04-09T16:25:58.125Z,12.58
2023-04-09T16:28:26.815Z,12.57
2023-04-09T16:30:54.397Z,12.52
2023-04-09T16:33:22.315Z,12.49
2023-04-09T16:35:50.237Z,12.45
2023-04-09T16:38:17.785Z,12.41
2023-04-09T16:40:45.239Z,12.39
2023-04-09T16:43:12.796Z,12.34
2023-04-09T16:45:40.310Z,12.29
2023-04-09T16:48:12.687Z,12.23
2023-04-09T16:50:40.683Z,12.22
2023-04-09T16:53:08.581Z,12.17
2023-04-09T16:55:36.472Z,12.11
2023-04-09T16:58:03.911Z,12.05
2023-04-09T17:00:32.056Z,12.05
2023-04-09T17:02:59.927Z,12.02
2023-04-09T17:05:27.721Z,11.99
2023-04-09T17:07:55.632Z,11.90
2023-04-09T17:10:24.222Z,11.89
2023-04-09T17:12:52.241Z,11.86
2023-04-09T17:15:19.840Z,11.81
2023-04-09T17:17:49.688Z,11.77
2023-04-09T17:20:17.339Z,11.75
2023-04-09T17:22:45.066Z,11.73
2023-04-09T17:25:12.718Z,11.63
2023-04-09T17:27:40.265Z,11.54
2023-04-09T17:30:08.195Z,11.52
2023-04-09T17:32:36.150Z,11.53
2023-04-09T17:35:04.000Z,11.48
2023-04-09T17:37:31.814Z,11.45
2023-04-09T17:40:00.806Z,11.40
2023-04-09T17:42:29.178Z,11.35
2023-04-09T17:44:56.780Z,11.27
2023-04-09T17:47:24.276Z,11.30
2023-04-09T17:49:52.891Z,11.31
2023-04-09T17:52:20.812Z,11.25
2023-04-09T17:54:50.842Z,11.21
2023-04-09T17:57:18.928Z,11.19
2023-04-09T17:59:46.458Z,11.16
2023-04-09T18:02:14.019Z,11.14
2023-04-09T18:04:42.147Z,11.11
2023-04-09T18:07:09.736Z,11.09
2023-04-09T18:09:39.346Z,11.07
2023-04-09T18:12:07.195Z,11.01
2023-04-09T18:14:34.775Z,10.99
2023-04-09T18:17:02.625Z,10.94
2023-04-09T18:19:30.131Z,10.93
2023-04-09T18:21:57.582Z,10.90
2023-04-09T18:24:26.511Z,10.86
2023-04-09T18:26:54.025Z,10.83
2023-04-09T18:29:21.588Z,10.77
2023-04-09T18:31:49.105Z,10.73
2023-04-09T18:34:17.106Z,10.71
2023-04-09T18:36:44.567Z,10.65
2023-04-09T18:39:15.465Z,10.61
2023-04-09T18:41:43.911Z,10.59
2023-04-09T18:44:11.434Z,10.50
2023-04-09T18:46:39.083Z,10.44
2023-04-09T18:49:06.675Z,10.40
2023-04-09T18:51:34.299Z,10.35
2023-04-09T18:54:07.226Z,10.41
2023-04-09T18:56:34.757Z,10.29
2023-04-09T18:59:02.286Z,10.25
2023-04-09T19:01:31.013Z,10.18
2023-04-09T19:03:58.639Z,10.08
2023-04-09T19:06:28.139Z,10.03
2023-04-09T19:08:59.337Z,9.98
2023-04-09T19:11:27.022Z,9.93
2023-04-09T19:13:54.840Z,9.83
2023-04-09T19:16:22.501Z,9.81
2023-04-09T19:18:50.167Z,9.76
2023-04-09T19:21:18.806Z,9.73
2023-04-09T19:23:47.091Z,9.71
2023-04-09T19:26:14.745Z,9.72
2023-04-09T19:28:42.213Z,9.70
2023-04-09T19:31:09.829Z,9.66
2023-04-09T19:33:37.325Z,9.66
2023-04-09T19:36:05.100Z,9.64
2023-04-09T19:38:32.561Z,9.59
2023-04-09T19:41:00.116Z,9.55
2023-04-09T19:43:27.767Z,9.56
2023-04-09T19:45:55.317Z,9.52
2023-04-09T19:48:22.882Z,9.52
2023-04-09T19:50:50.453Z,9.48
2023-04-09T19:53:18.720Z,9.47
2023-04-09T19:55:46.204Z,9.44
2023-04-09T19:58:13.705Z,9.37
2023-04-09T20:00:41.404Z,9.39
2023-04-09T20:03:09.718Z,9.31
2023-04-09T20:05:37.338Z,9.33
2023-04-09T20:08:05.097Z,9.25
2023-04-09T20:10:32.701Z,9.25
2023-04-09T20:13:00.074Z,9.22
2023-04-09T20:15:27.562Z,9.22
2023-04-09T20:17:55.184Z,9.20
2023-04-09T20:20:22.863Z,9.16
2023-04-09T20:22:56.839Z,9.11
2023-04-09T20:25:25.845Z,9.09
2023-04-09T20:27:54.607Z,9.04
2023-04-09T20:30:22.956Z,8.98
2023-04-09T20:32:50.660Z,8.97
2023-04-09T20:35:18.111Z,8.81
2023-04-09T20:37:45.631Z,8.77
2023-04-09T20:40:13.109Z,8.68
2023-04-09T20:42:44.245Z,8.79
2023-04-09T20:45:11.904Z,8.72
2023-04-09T20:47:39.573Z,8.66
2023-04-09T20:50:07.576Z,8.61
2023-04-09T20:52:35.211Z,8.58
2023-04-09T20:55:02.776Z,8.61
2023-04-09T20:57:30.530Z,8.59
2023-04-09T20:59:58.073Z,8.60
2023-04-09T21:02:26.011Z,8.56
2023-04-09T21:04:53.607Z,8.52
2023-04-09T21:07:21.064Z,8.44
2023-04-09T21:09:48.519Z,8.43
2023-04-09T21:12:16.093Z,8.40
2023-04-09T21:14:43.629Z,8.38
2023-04-09T21:17:11.260Z,8.37
2023-04-09T21:19:38.881Z,8.34
2023-04-09T21:22:06.285Z,8.33
2023-04-09T21:24:35.488Z,8.32
2023-04-09T21:27:07.032Z,8.28
2023-04-09T21:29:37.641Z,8.30
2023-04-09T21:32:05.202Z,8.26
2023-04-09T21:34:32.897Z,8.23
2023-04-09T21:37:03.242Z,8.30
2023-04-09T21:39:30.819Z,8.19
2023-04-09T21:41:58.515Z,8.11
2023-04-09T21:44:26.040Z,8.13
2023-04-09T21:46:53.670Z,8.11
2023-04-09T21:49:21.150Z,8.10
2023-04-09T21:51:48.633Z,8.06
2023-04-09T21:54:16.142Z,8.05
2023-04-09T21:56:43.620Z,8.04
2023-04-09T21:59:11.038Z,8.00
2023-04-09T22:01:38.637Z,7.94
2023-04-09T22:04:06.191Z,7.86
2023-04-09T22:06:33.816Z,7.84
2023-04-09T22:09:02.174Z,7.71
2023-04-09T22:11:30.057Z,7.54
2023-04-09T22:13:58.072Z,7.75
2023-04-09T22:16:26.517Z,7.76
2023-04-09T22:18:54.953Z,7.78
2023-04-09T22:21:22.885Z,7.70
2023-04-09T22:23:50.325Z,7.77
2023-04-09T22:26:17.836Z,7.71
2023-04-09T22:28:45.410Z,7.72
2023-04-09T22:31:12.884Z,7.72
2023-04-09T22:33:40.753Z,7.68
2023-04-09T22:36:08.624Z,7.72
2023-04-09T22:38:36.383Z,7.72
2023-04-09T22:41:03.953Z,7.68
2023-04-09T22:43:31.920Z,7.65
2023-04-09T22:45:59.459Z,7.63
2023-04-09T22:48:27.437Z,7.59
2023-04-09T22:50:55.037Z,7.57
2023-04-09T22:53:22.597Z,7.59
2023-04-09T22:55:54.698Z,7.62
2023-04-09T22:58:22.185Z,7.60
2023-04-09T23:00:50.866Z,7.61
2023-04-09T23:03:18.747Z,7.60
2023-04-09T23:05:46.838Z,7.52
2023-04-09T23:08:14.304Z,7.56
2023-04-09T23:10:41.841Z,7.57
2023-04-09T23:13:11.807Z,7.52
2023-04-09T23:15:39.417Z,7.51
2023-04-09T23:18:06.950Z,7.45
2023-04-09T23:20:35.997Z,7.47
2023-04-09T23:23:03.916Z,7.45
2023-04-09T23:25:31.551Z,7.46
2023-04-09T23:27:58.957Z,7.43
2023-04-09T23:30:26.465Z,7.40
2023-04-09T23:32:55.617Z,7.38
2023-04-09T23:35:24.950Z,7.35
2023-04-09T23:37:52.542Z,7.34
2023-04-09T23:40:20.184Z,7.29
2023-04-09T23:42:49.253Z,7.24
2023-04-09T23:45:16.909Z,7.19
2023-04-09T23:47:44.424Z,7.19
2023-04-09T23:50:12.072Z,7.20
2023-04-09T23:52:39.863Z,7.15
2023-04-09T23:55:11.001Z,7.18
2023-04-09T23:57:40.244Z,7.18
